Atlantic Aquarius — VRDX6 — position and weather

sailwx.info

Track history (hours):
 
Tides and Currents Weather Stations Pressure Air Temp Water Temp Dewpoint Dewpoint Depression Visibility Wind Speed Wind Dir Waves Ship Positions

Atlantic Aquarius

Last reported at 2017-Feb-27 04:32 UTC. Time now 2017-Feb-27 20:24 UTC.
Position N 01°14' E 103°60'.

Length 183 m; draft 11.5 m.

Type: Ship (hazmat cat A). MMSI: 477071400.

Date/timePositionNaut miles runAvg speedWind from/ knotsBaromVisibWave heightAir tempDewpointWater temp
2017-Feb-27 04:32N 01°14' E 103°60'1111.5
2017-Feb-27 03:33N 01°10' E 103°49'1111.1
2017-Feb-27 02:33N 01°03' E 103°40'7 7.1
2017-Feb-27 01:33N 01°08' E 103°35'1 0.1
2017-Feb-26 19:09N 01°08' E 103°34'0 0.1
2017-Feb-26 18:27N 01°08' E 103°34'0 0.0
2017-Feb-26 17:33N 01°08' E 103°34'0 0.0
2017-Feb-26 12:06N 01°09' E 103°34'0 0.0
2017-Feb-26 10:24N 01°09' E 103°34'0 0.0
2017-Feb-26 00:33N 01°09' E 103°34'0 0.0
2017-Feb-25 23:33N 01°09' E 103°34'1 0.7
2017-Feb-25 22:29N 01°08' E 103°35'0 0.0
2017-Feb-25 21:20N 01°08' E 103°35'0 0.0
2017-Feb-25 20:26N 01°08' E 103°35'0 0.1
2017-Feb-25 19:29N 01°08' E 103°35'0 0.0
2017-Feb-25 18:32N 01°08' E 103°35'0 0.1
2017-Feb-25 17:23N 01°08' E 103°35'0 0.0
2017-Feb-25 16:32N 01°08' E 103°35'0 0.0
2017-Feb-25 15:29N 01°08' E 103°35'0 0.0
2017-Feb-25 14:32N 01°08' E 103°35'0 0.1
2017-Feb-25 13:32N 01°08' E 103°35'0 0.1
2017-Feb-25 12:32N 01°08' E 103°35'0 0.0
2017-Feb-25 11:32N 01°08' E 103°35'0 0.0
2017-Feb-25 10:31N 01°08' E 103°35'0 0.0
2017-Feb-25 09:26N 01°08' E 103°35'0 0.0
2017-Feb-25 08:29N 01°08' E 103°35'0 0.1
2017-Feb-25 07:17N 01°08' E 103°35'0 0.1
2017-Feb-25 06:23N 01°08' E 103°35'0 0.0
2017-Feb-25 05:33N 01°08' E 103°35'5 4.5
2017-Feb-25 04:33N 01°10' E 103°39'7 6.6
2017-Feb-25 03:33N 01°09' E 103°46'10 9.6
2017-Feb-25 02:33N 01°13' E 103°54'1010.0
2017-Feb-25 01:33N 01°16' E 104°04'3 0.1
2017-Feb-23 05:27N 01°15' E 104°01'1011.7
2017-Feb-23 04:33N 01°11' E 103°51'1211.8
2017-Feb-23 03:33N 01°04' E 103°42'1010.4
2017-Feb-23 02:33N 01°07' E 103°32'10 9.9
2017-Feb-23 01:33N 01°13' E 103°40'6 5.9
2017-Feb-23 00:33N 01°17' E 103°44'0 0.0
2017-Feb-22 23:30N 01°17' E 103°44'0 0.0
2017-Feb-22 22:33N 01°17' E 103°44'0 0.0
2017-Feb-21 18:14N 01°17' E 103°44'1 1.3
2017-Feb-21 17:31N 01°16' E 103°45'7 6.9
2017-Feb-21 16:32N 01°12' E 103°40'4 2.7
2017-Feb-21 15:03N 01°10' E 103°43'0 0.0
2017-Feb-21 14:21N 01°10' E 103°43'0 0.0
2017-Feb-21 13:33N 01°10' E 103°43'0 0.1
2017-Feb-21 10:33N 01°10' E 103°43'0 0.0
2017-Feb-21 05:27N 01°10' E 103°43'0 0.0
2017-Feb-21 02:33N 01°10' E 103°43'0 0.1
2017-Feb-21 01:15N 01°10' E 103°43'0 0.0
2017-Feb-21 00:24N 01°10' E 103°43'0 0.1
2017-Feb-20 23:15N 01°10' E 103°43'0 0.0
2017-Feb-20 22:09N 01°10' E 103°43'0 0.1
2017-Feb-20 21:21N 01°10' E 103°43'0 0.1
2017-Feb-20 19:33N 01°10' E 103°43'0 0.1
2017-Feb-20 17:27N 01°10' E 103°43'0 0.1
2017-Feb-20 14:27N 01°10' E 103°43'0 0.0
2017-Feb-20 13:30N 01°10' E 103°43'0 0.0
2017-Feb-20 09:26N 01°10' E 103°43'2 2.7
2017-Feb-20 08:32N 01°09' E 103°45'9 9.5
2017-Feb-20 07:33N 01°13' E 103°54'  
Track history (hours):
 
Tides and Currents Weather Stations Pressure Air Temp Water Temp Dewpoint Dewpoint Depression Visibility Wind Speed Wind Dir Waves Ship Positions

Atlantic Aquarius

Last reported at 2017-Feb-27 04:32 UTC. Time now 2017-Feb-27 20:24 UTC.
Position N 01°14' E 103°60'.

Length 183 m; draft 11.5 m.

Type: Ship (hazmat cat A). MMSI: 477071400.

Date/timePositionNaut miles runAvg speedWind from/ knotsBaromVisibWave heightAir tempDewpointWater temp
2017-Feb-27 04:32N 01°14' E 103°60'1111.5
2017-Feb-27 03:33N 01°10' E 103°49'1111.1
2017-Feb-27 02:33N 01°03' E 103°40'7 7.1
2017-Feb-27 01:33N 01°08' E 103°35'1 0.1
2017-Feb-26 19:09N 01°08' E 103°34'0 0.1
2017-Feb-26 18:27N 01°08' E 103°34'0 0.0
2017-Feb-26 17:33N 01°08' E 103°34'0 0.0
2017-Feb-26 12:06N 01°09' E 103°34'0 0.0
2017-Feb-26 10:24N 01°09' E 103°34'0 0.0
2017-Feb-26 00:33N 01°09' E 103°34'0 0.0
2017-Feb-25 23:33N 01°09' E 103°34'1 0.7
2017-Feb-25 22:29N 01°08' E 103°35'0 0.0
2017-Feb-25 21:20N 01°08' E 103°35'0 0.0
2017-Feb-25 20:26N 01°08' E 103°35'0 0.1
2017-Feb-25 19:29N 01°08' E 103°35'0 0.0
2017-Feb-25 18:32N 01°08' E 103°35'0 0.1
2017-Feb-25 17:23N 01°08' E 103°35'0 0.0
2017-Feb-25 16:32N 01°08' E 103°35'0 0.0
2017-Feb-25 15:29N 01°08' E 103°35'0 0.0
2017-Feb-25 14:32N 01°08' E 103°35'0 0.1
2017-Feb-25 13:32N 01°08' E 103°35'0 0.1
2017-Feb-25 12:32N 01°08' E 103°35'0 0.0
2017-Feb-25 11:32N 01°08' E 103°35'0 0.0
2017-Feb-25 10:31N 01°08' E 103°35'0 0.0
2017-Feb-25 09:26N 01°08' E 103°35'0 0.0
2017-Feb-25 08:29N 01°08' E 103°35'0 0.1
2017-Feb-25 07:17N 01°08' E 103°35'0 0.1
2017-Feb-25 06:23N 01°08' E 103°35'0 0.0
2017-Feb-25 05:33N 01°08' E 103°35'5 4.5
2017-Feb-25 04:33N 01°10' E 103°39'7 6.6
2017-Feb-25 03:33N 01°09' E 103°46'10 9.6
2017-Feb-25 02:33N 01°13' E 103°54'1010.0
2017-Feb-25 01:33N 01°16' E 104°04'3 0.1
2017-Feb-23 05:27N 01°15' E 104°01'1011.7
2017-Feb-23 04:33N 01°11' E 103°51'1211.8
2017-Feb-23 03:33N 01°04' E 103°42'1010.4
2017-Feb-23 02:33N 01°07' E 103°32'10 9.9
2017-Feb-23 01:33N 01°13' E 103°40'6 5.9
2017-Feb-23 00:33N 01°17' E 103°44'0 0.0
2017-Feb-22 23:30N 01°17' E 103°44'0 0.0
2017-Feb-22 22:33N 01°17' E 103°44'0 0.0
2017-Feb-21 18:14N 01°17' E 103°44'1 1.3
2017-Feb-21 17:31N 01°16' E 103°45'7 6.9
2017-Feb-21 16:32N 01°12' E 103°40'4 2.7
2017-Feb-21 15:03N 01°10' E 103°43'0 0.0
2017-Feb-21 14:21N 01°10' E 103°43'0 0.0
2017-Feb-21 13:33N 01°10' E 103°43'0 0.1
2017-Feb-21 10:33N 01°10' E 103°43'0 0.0
2017-Feb-21 05:27N 01°10' E 103°43'0 0.0
2017-Feb-21 02:33N 01°10' E 103°43'0 0.1
2017-Feb-21 01:15N 01°10' E 103°43'0 0.0
2017-Feb-21 00:24N 01°10' E 103°43'0 0.1
2017-Feb-20 23:15N 01°10' E 103°43'0 0.0
2017-Feb-20 22:09N 01°10' E 103°43'0 0.1
2017-Feb-20 21:21N 01°10' E 103°43'0 0.1
2017-Feb-20 19:33N 01°10' E 103°43'0 0.1
2017-Feb-20 17:27N 01°10' E 103°43'0 0.1
2017-Feb-20 14:27N 01°10' E 103°43'0 0.0
2017-Feb-20 13:30N 01°10' E 103°43'0 0.0
2017-Feb-20 09:26N 01°10' E 103°43'2 2.7
2017-Feb-20 08:32N 01°09' E 103°45'9 9.5
2017-Feb-20 07:33N 01°13' E 103°54'  

Dump ship's entire track history